Time;durP1;ratioP1;P1;durP2;ratioP2;P2;SDS_P1;SDS_P2;PMS_P1;PMS_P2;Temp;Humidity;BMP_temperature;BMP_pressure;BME280_temperature;BME280_humidity;BME280_pressure;Samples;Min_cycle;Max_cycle;Signal;HPM_P1;HPM_P2
2023/12/25 00:01:26;;;;;;;4.03;1.83;;;12.00;1.00;;;;;;5062906;28;20617;-84
2023/12/25 00:03:53;;;;;;;3.90;2.13;;;12.00;1.00;;;;;;5062005;28;20211;-83
2023/12/25 00:06:20;;;;;;;5.40;2.00;;;11.90;51.60;;;;;;5062528;28;20217;-83
2023/12/25 00:08:48;;;;;;;3.83;1.90;;;11.90;1.00;;;;;;5061606;28;20744;-81
2023/12/25 00:11:16;;;;;;;4.53;1.90;;;12.00;99.90;;;;;;5061538;28;20277;-81
2023/12/25 00:13:43;;;;;;;7.03;2.40;;;12.00;1.00;;;;;;5072037;28;20214;-84
2023/12/25 00:16:11;;;;;;;2.87;1.90;;;12.20;1.00;;;;;;5081850;28;20228;-82
2023/12/25 00:18:37;;;;;;;5.60;2.00;;;12.20;1.00;;;;;;5081319;28;20634;-82
2023/12/25 00:21:05;;;;;;;5.07;1.77;;;12.20;99.90;;;;;;5081720;28;20230;-84
2023/12/25 00:23:31;;;;;;;6.20;1.90;;;12.30;1.00;;;;;;5082167;28;20690;-81
2023/12/25 00:25:58;;;;;;;6.50;2.27;;;12.40;99.90;;;;;;5080064;28;20208;-84
2023/12/25 00:28:25;;;;;;;5.10;2.00;;;12.40;1.00;;;;;;5061524;28;20213;-84
2023/12/25 00:30:52;;;;;;;4.20;1.80;;;12.50;1.00;;;;;;5061672;28;20202;-81
2023/12/25 00:33:20;;;;;;;5.00;1.70;;;12.50;1.00;;;;;;5061514;28;20207;-82
2023/12/25 00:35:47;;;;;;;2.83;1.77;;;12.40;1.00;;;;;;5061733;28;20707;-81
2023/12/25 00:38:13;;;;;;;3.97;1.43;;;12.40;1.00;;;;;;5060631;28;20211;-83
2023/12/25 00:40:40;;;;;;;5.30;2.20;;;12.50;1.00;;;;;;5061527;28;20203;-82
2023/12/25 00:43:07;;;;;;;3.60;1.73;;;12.30;1.00;;;;;;5062108;28;20209;-83
2023/12/25 00:45:34;;;;;;;4.87;1.73;;;12.30;1.00;;;;;;5061252;28;20199;-82
2023/12/25 00:48:01;;;;;;;3.30;1.43;;;12.30;1.00;;;;;;5061770;28;20226;-81
2023/12/25 00:50:29;;;;;;;3.17;1.17;;;12.30;1.00;;;;;;5061306;28;20221;-82
2023/12/25 00:52:55;;;;;;;3.27;1.47;;;12.20;1.00;;;;;;5059925;28;20233;-81
2023/12/25 00:55:22;;;;;;;3.57;1.63;;;12.10;99.90;;;;;;5058695;28;20691;-83
2023/12/25 00:57:49;;;;;;;3.33;1.50;;;12.10;99.90;;;;;;5061650;28;20685;-82
2023/12/25 01:00:15;;;;;;;2.93;1.50;;;12.20;1.00;;;;;;5071756;28;20672;-83
2023/12/25 01:02:42;;;;;;;5.07;1.67;;;12.20;99.90;;;;;;5081089;28;20230;-81
2023/12/25 01:05:10;;;;;;;4.43;1.30;;;12.40;50.30;;;;;;5078481;28;20194;-82
2023/12/25 01:07:38;;;;;;;2.47;1.40;;;12.20;1.00;;;;;;5079178;28;20618;-82
2023/12/25 01:10:05;;;;;;;4.60;2.03;;;12.30;99.90;;;;;;5079124;28;20720;-82
2023/12/25 01:12:32;;;;;;;3.73;1.53;;;12.40;1.00;;;;;;5079325;28;20222;-84
2023/12/25 01:14:59;;;;;;;4.33;1.60;;;12.30;1.00;;;;;;5078816;28;20224;-82
2023/12/25 01:17:26;;;;;;;3.40;1.30;;;12.30;1.00;;;;;;5078758;28;20289;-81
2023/12/25 01:19:53;;;;;;;2.63;1.40;;;12.30;1.00;;;;;;5079066;28;20206;-81
2023/12/25 01:22:19;;;;;;;4.63;1.70;;;12.50;1.00;;;;;;5079341;28;20222;-81
2023/12/25 01:24:48;;;;;;;2.13;1.60;;;12.50;1.00;;;;;;5079247;28;20289;-82
2023/12/25 01:27:14;;;;;;;1.47;0.80;;;12.30;1.00;;;;;;5079100;28;20668;-80
2023/12/25 01:29:41;;;;;;;2.90;1.30;;;12.50;99.90;;;;;;5079266;28;20202;-81
2023/12/25 01:32:08;;;;;;;5.00;1.77;;;12.70;99.90;;;;;;5079644;28;20222;-81
2023/12/25 01:34:35;;;;;;;3.33;1.87;;;12.20;99.90;;;;;;5078525;28;20198;-82
2023/12/25 01:37:04;;;;;;;1.53;1.43;;;12.00;1.00;;;;;;5078214;28;20204;-80
2023/12/25 01:39:31;;;;;;;3.43;2.13;;;11.80;49.70;;;;;;5077242;28;20206;-81
2023/12/25 01:41:59;;;;;;;1.50;1.40;;;11.60;1.00;;;;;;5077532;28;20779;-81
2023/12/25 01:44:25;;;;;;;2.03;1.50;;;11.60;1.00;;;;;;5078053;28;20206;-83
2023/12/25 01:46:52;;;;;;;3.53;1.53;;;11.60;1.00;;;;;;5077453;28;20233;-82
2023/12/25 01:49:20;;;;;;;2.20;1.57;;;11.60;1.00;;;;;;5077379;28;20212;-82
2023/12/25 01:51:46;;;;;;;3.33;1.73;;;11.70;1.00;;;;;;5077276;28;20623;-84
2023/12/25 01:54:13;;;;;;;1.90;1.70;;;11.90;1.00;;;;;;5077915;28;20212;-82
2023/12/25 01:56:40;;;;;;;2.27;1.73;;;12.00;1.00;;;;;;5077601;28;20677;-82
2023/12/25 01:59:09;;;;;;;4.03;2.17;;;12.10;99.90;;;;;;5077209;28;20225;-79
2023/12/25 02:01:36;;;;;;;3.20;1.97;;;12.10;1.00;;;;;;5075873;28;20233;-80
2023/12/25 02:04:03;;;;;;;4.03;1.90;;;12.10;1.00;;;;;;5058275;28;20928;-81
2023/12/25 02:06:30;;;;;;;3.00;1.57;;;12.10;1.00;;;;;;5055235;28;20668;-81
2023/12/25 02:08:58;;;;;;;2.03;1.27;;;12.00;99.90;;;;;;5071008;28;20767;-81
2023/12/25 02:11:24;;;;;;;2.80;1.40;;;12.10;1.00;;;;;;5065040;28;20253;-80
2023/12/25 02:13:55;;;;;;;3.43;1.67;;;12.10;1.00;;;;;;5053779;28;20257;-83
2023/12/25 02:16:23;;;;;;;3.20;1.73;;;12.10;1.00;;;;;;5054817;28;20207;-81
2023/12/25 02:18:51;;;;;;;3.30;1.43;;;12.10;1.00;;;;;;5055759;28;20207;-80
2023/12/25 02:21:18;;;;;;;1.73;1.40;;;12.10;1.00;;;;;;5066604;28;20244;-82
2023/12/25 02:23:51;;;;;;;2.73;1.57;;;12.10;1.00;;;;;;5077061;28;20207;-82
2023/12/25 02:26:19;;;;;;;1.97;1.30;;;12.10;99.90;;;;;;5076630;28;20273;-81
2023/12/25 02:28:46;;;;;;;3.03;1.40;;;12.10;99.90;;;;;;5075812;28;20213;-83
2023/12/25 02:31:13;;;;;;;1.17;0.90;;;12.10;1.00;;;;;;5076544;28;20696;-81
2023/12/25 02:33:39;;;;;;;1.30;1.20;;;12.10;1.00;;;;;;5076636;28;20198;-83
2023/12/25 02:36:07;;;;;;;0.97;0.90;;;12.00;99.90;;;;;;5076890;28;20225;-83
2023/12/25 02:38:33;;;;;;;4.63;1.17;;;12.00;99.90;;;;;;5075460;28;20213;-83
2023/12/25 02:41:00;;;;;;;2.30;1.13;;;12.00;1.00;;;;;;5076907;28;20202;-83
2023/12/25 02:43:28;;;;;;;2.33;1.27;;;12.10;1.00;;;;;;5076853;28;20205;-80
2023/12/25 02:45:55;;;;;;;2.63;0.80;;;12.00;1.00;;;;;;5077022;28;20208;-81
2023/12/25 02:48:22;;;;;;;3.47;0.87;;;12.00;1.00;;;;;;5077168;28;20206;-82
2023/12/25 02:50:49;;;;;;;2.90;1.00;;;12.00;1.00;;;;;;5076835;28;20217;-81
2023/12/25 02:53:15;;;;;;;2.93;0.97;;;12.00;1.00;;;;;;5077675;28;20551;-81
2023/12/25 02:55:42;;;;;;;3.83;1.20;;;12.10;99.90;;;;;;5076667;28;20214;-82
2023/12/25 02:58:09;;;;;;;2.10;0.80;;;12.10;99.90;;;;;;5073524;28;20228;-81
2023/12/25 03:00:37;;;;;;;2.30;1.00;;;12.10;22.80;;;;;;5056751;28;20210;-81
2023/12/25 03:03:04;;;;;;;2.97;1.03;;;12.10;1.00;;;;;;5056925;28;20291;-81
2023/12/25 03:05:31;;;;;;;3.23;0.87;;;12.00;14.50;;;;;;5057600;28;20203;-81
2023/12/25 03:07:58;;;;;;;1.77;0.83;;;12.10;1.00;;;;;;5057052;28;20199;-79
2023/12/25 03:10:24;;;;;;;2.37;0.73;;;12.00;99.90;;;;;;5055824;28;20203;-79
2023/12/25 03:12:51;;;;;;;2.57;1.23;;;12.00;99.90;;;;;;5055744;28;20222;-83
2023/12/25 03:15:18;;;;;;;2.83;1.10;;;12.00;99.90;;;;;;5055440;28;20219;-80
2023/12/25 03:17:46;;;;;;;4.20;1.30;;;12.00;1.00;;;;;;5055943;28;20575;-82
2023/12/25 03:20:13;;;;;;;2.50;1.03;;;12.10;1.00;;;;;;5054303;28;20203;-82
2023/12/25 03:22:40;;;;;;;2.70;0.97;;;12.10;1.00;;;;;;5054175;28;20234;-82
2023/12/25 03:25:07;;;;;;;1.70;0.83;;;12.10;1.00;;;;;;5054183;28;20235;-81
2023/12/25 03:27:34;;;;;;;2.00;0.87;;;12.10;1.00;;;;;;5054067;28;20209;-82
2023/12/25 03:30:00;;;;;;;3.20;0.90;;;12.10;1.00;;;;;;5054509;28;20230;-79
2023/12/25 03:32:27;;;;;;;2.80;0.67;;;12.10;1.00;;;;;;5054769;28;20265;-84
2023/12/25 03:34:55;;;;;;;1.43;0.90;;;12.00;1.00;;;;;;5055392;28;20286;-84
2023/12/25 03:37:22;;;;;;;3.00;0.90;;;12.10;1.00;;;;;;5057078;28;20241;-81
2023/12/25 03:39:49;;;;;;;1.37;1.03;;;12.10;1.00;;;;;;5056826;28;20199;-80
2023/12/25 03:42:16;;;;;;;1.20;0.87;;;12.10;1.00;;;;;;5056679;28;20277;-82
2023/12/25 03:44:42;;;;;;;2.33;0.87;;;12.00;1.00;;;;;;5056966;28;20290;-82
2023/12/25 03:47:09;;;;;;;3.70;1.27;;;12.00;1.00;;;;;;5056491;28;20263;-80
2023/12/25 03:49:37;;;;;;;2.30;0.90;;;11.90;1.00;;;;;;5056878;28;20199;-81
2023/12/25 03:52:06;;;;;;;3.43;1.30;;;12.00;1.00;;;;;;5056006;28;20229;-80
2023/12/25 03:54:33;;;;;;;3.73;1.00;;;12.00;1.00;;;;;;5055916;28;20210;-81
2023/12/25 03:57:00;;;;;;;1.83;1.10;;;12.00;1.00;;;;;;5055196;28;20225;-81
2023/12/25 03:59:26;;;;;;;2.20;1.00;;;12.10;1.00;;;;;;5055657;28;20195;-84
2023/12/25 04:01:53;;;;;;;2.97;1.23;;;12.00;1.00;;;;;;5055827;28;20221;-83
2023/12/25 04:04:20;;;;;;;0.80;0.80;;;11.90;1.00;;;;;;5055734;28;20226;-81
2023/12/25 04:06:47;;;;;;;2.67;1.00;;;12.00;99.90;;;;;;5056046;28;20205;-82
2023/12/25 04:09:15;;;;;;;3.67;1.30;;;12.00;99.90;;;;;;5056112;28;20207;-82
2023/12/25 04:11:42;;;;;;;1.43;1.00;;;12.00;1.00;;;;;;5057172;28;20226;-82
2023/12/25 04:14:09;;;;;;;2.80;1.10;;;12.00;1.00;;;;;;5059526;28;20570;-82
2023/12/25 04:16:36;;;;;;;2.27;1.20;;;12.00;1.00;;;;;;5060124;28;20225;-83
2023/12/25 04:19:03;;;;;;;3.60;1.40;;;12.00;1.00;;;;;;5059136;28;20234;-82
2023/12/25 04:21:31;;;;;;;3.97;1.73;;;11.90;1.00;;;;;;5059511;28;20227;-82
2023/12/25 04:23:59;;;;;;;3.57;1.37;;;11.90;1.00;;;;;;5060061;28;20572;-84
2023/12/25 04:26:27;;;;;;;6.17;1.53;;;11.90;1.00;;;;;;5060034;28;20210;-82
2023/12/25 04:28:53;;;;;;;4.27;1.47;;;11.90;1.00;;;;;;5071909;28;20203;-81
2023/12/25 04:31:20;;;;;;;4.13;1.30;;;11.90;1.00;;;;;;5078652;28;20248;-81
2023/12/25 04:33:47;;;;;;;6.13;1.73;;;11.80;1.00;;;;;;5079106;28;20210;-81
2023/12/25 04:36:14;;;;;;;5.70;2.00;;;11.90;99.90;;;;;;5079094;28;20229;-82
2023/12/25 04:38:41;;;;;;;4.03;1.40;;;12.00;99.90;;;;;;5078673;28;20206;-83
2023/12/25 04:41:08;;;;;;;3.23;1.60;;;12.00;99.90;;;;;;5077672;28;20233;-81
2023/12/25 04:43:36;;;;;;;6.40;1.70;;;12.00;99.90;;;;;;5078201;28;20194;-83
2023/12/25 04:46:03;;;;;;;1.53;1.03;;;12.00;9.30;;;;;;5078495;28;20656;-83
2023/12/25 04:48:30;;;;;;;2.93;1.23;;;12.00;1.00;;;;;;5078471;28;20724;-82
2023/12/25 04:50:57;;;;;;;3.93;1.47;;;12.00;1.00;;;;;;5078368;28;20206;-83
2023/12/25 04:53:24;;;;;;;6.80;1.57;;;11.90;99.90;;;;;;5078478;28;20206;-82
2023/12/25 04:55:51;;;;;;;3.70;1.43;;;11.90;99.90;;;;;;5078851;28;20226;-83
2023/12/25 04:58:18;;;;;;;2.80;1.53;;;11.80;1.00;;;;;;5078623;28;20206;-82
2023/12/25 05:00:46;;;;;;;3.17;1.40;;;11.70;1.00;;;;;;5078297;28;20272;-81
2023/12/25 05:03:13;;;;;;;8.47;1.53;;;11.70;1.00;;;;;;5079071;28;20202;-83
2023/12/25 05:05:40;;;;;;;4.77;1.17;;;11.70;1.00;;;;;;5078119;28;20207;-83
2023/12/25 05:08:07;;;;;;;1.57;1.30;;;11.70;44.40;;;;;;5077599;28;20692;-82
2023/12/25 05:10:33;;;;;;;6.57;1.33;;;11.60;1.00;;;;;;5078759;28;20207;-82
2023/12/25 05:13:00;;;;;;;5.00;1.60;;;11.50;1.00;;;;;;5078704;28;20224;-83
2023/12/25 05:15:28;;;;;;;2.57;1.43;;;11.50;1.00;;;;;;5078517;28;20202;-78
2023/12/25 05:17:56;;;;;;;3.90;1.43;;;11.50;83.40;;;;;;5079198;28;20680;-82
2023/12/25 05:20:23;;;;;;;4.53;1.20;;;11.40;1.00;;;;;;5078106;28;20202;-82
2023/12/25 05:22:49;;;;;;;3.07;1.50;;;11.30;1.00;;;;;;5076882;28;20222;-81
2023/12/25 05:25:16;;;;;;;6.80;1.53;;;11.30;43.20;;;;;;5076788;28;20213;-84
2023/12/25 05:27:43;;;;;;;2.73;1.20;;;11.30;1.00;;;;;;5077727;28;20230;-82
2023/12/25 05:30:11;;;;;;;3.67;1.80;;;11.20;99.90;;;;;;5078289;28;20281;-82
2023/12/25 05:32:38;;;;;;;1.90;0.93;;;11.20;99.90;;;;;;5077822;28;20638;-82
2023/12/25 05:35:07;;;;;;;3.17;1.40;;;11.30;1.00;;;;;;5077932;28;20231;-84
2023/12/25 05:37:34;;;;;;;2.53;1.17;;;11.30;1.00;;;;;;5077218;28;20226;-82
2023/12/25 05:40:01;;;;;;;3.40;1.30;;;11.20;1.00;;;;;;5077552;28;20216;-82
2023/12/25 05:42:28;;;;;;;1.37;1.10;;;11.20;99.90;;;;;;5077840;28;20248;-80
2023/12/25 05:44:55;;;;;;;2.47;1.00;;;11.10;99.90;;;;;;5077910;28;20294;-83
2023/12/25 05:47:22;;;;;;;2.47;1.43;;;11.00;1.00;;;;;;5077820;28;20664;-81
2023/12/25 05:49:48;;;;;;;1.27;0.93;;;11.00;1.00;;;;;;5076823;28;20296;-79
2023/12/25 05:52:16;;;;;;;4.13;1.10;;;11.00;1.00;;;;;;5075273;28;20218;-81
2023/12/25 05:54:43;;;;;;;3.90;1.37;;;10.90;99.90;;;;;;5078060;28;20574;-80
2023/12/25 05:57:11;;;;;;;3.70;1.43;;;10.90;1.00;;;;;;5077951;28;20226;-81
2023/12/25 05:59:38;;;;;;;2.60;1.33;;;10.80;99.90;;;;;;5077668;28;20613;-80
2023/12/25 06:02:05;;;;;;;3.73;1.23;;;10.70;99.90;;;;;;5077864;28;20253;-80
2023/12/25 06:04:32;;;;;;;3.77;1.60;;;10.70;99.90;;;;;;5078252;28;20306;-80
2023/12/25 06:06:58;;;;;;;2.83;1.20;;;10.60;99.90;;;;;;5077220;28;20228;-77
2023/12/25 06:09:27;;;;;;;3.67;1.20;;;10.60;99.90;;;;;;5076494;28;20293;-80
2023/12/25 06:11:54;;;;;;;4.00;1.30;;;10.60;99.90;;;;;;5076329;28;20221;-80
2023/12/25 06:14:20;;;;;;;7.50;1.60;;;10.50;99.90;;;;;;5077384;28;20210;-81
2023/12/25 06:16:47;;;;;;;4.10;2.20;;;10.60;99.90;;;;;;5077097;28;20293;-79
2023/12/25 06:19:14;;;;;;;3.83;1.40;;;10.60;99.90;;;;;;5074648;28;20207;-81
2023/12/25 06:21:41;;;;;;;3.00;1.63;;;10.60;99.90;;;;;;5076228;28;20245;-80
2023/12/25 06:24:08;;;;;;;3.07;1.50;;;10.60;99.90;;;;;;5077482;28;20657;-80
2023/12/25 06:26:36;;;;;;;4.17;1.57;;;10.60;99.90;;;;;;5077291;28;20209;-82
2023/12/25 06:29:03;;;;;;;4.70;1.90;;;10.50;99.90;;;;;;5076993;28;20206;-81
2023/12/25 06:31:30;;;;;;;2.47;1.27;;;10.50;99.90;;;;;;5077014;28;20237;-79
2023/12/25 06:33:57;;;;;;;2.30;1.40;;;10.50;99.90;;;;;;5076816;28;20293;-79
2023/12/25 06:36:23;;;;;;;3.67;1.20;;;10.60;99.90;;;;;;5076664;28;20230;-81
2023/12/25 06:38:50;;;;;;;3.20;1.50;;;10.60;99.90;;;;;;5075635;28;20194;-79
2023/12/25 06:41:17;;;;;;;2.20;1.37;;;10.60;99.90;;;;;;5074749;28;20233;-79
2023/12/25 06:43:45;;;;;;;2.97;1.57;;;10.60;99.90;;;;;;5075904;28;20210;-79
2023/12/25 06:46:12;;;;;;;4.40;1.30;;;10.70;17.60;;;;;;5074973;28;20206;-79
2023/12/25 06:48:39;;;;;;;2.77;1.30;;;10.70;1.00;;;;;;5075039;28;20635;-80
2023/12/25 06:51:08;;;;;;;4.43;1.50;;;10.70;1.00;;;;;;5073212;28;20241;-82
2023/12/25 06:53:35;;;;;;;1.60;1.30;;;10.70;1.00;;;;;;5076136;28;20206;-79
2023/12/25 06:56:02;;;;;;;3.23;1.30;;;10.80;1.00;;;;;;5075606;28;20203;-80
2023/12/25 06:58:29;;;;;;;4.07;1.47;;;10.80;4.40;;;;;;5074917;28;20202;-83
2023/12/25 07:00:59;;;;;;;4.77;1.80;;;10.80;1.00;;;;;;5074867;28;20568;-82
2023/12/25 07:03:26;;;;;;;3.50;2.10;;;10.80;1.00;;;;;;5076971;28;20198;-82
2023/12/25 07:05:52;;;;;;;2.67;1.13;;;10.80;1.00;;;;;;5079739;28;20277;-82
2023/12/25 07:08:19;;;;;;;2.87;1.17;;;10.90;99.90;;;;;;5066654;28;20202;-81
2023/12/25 07:10:46;;;;;;;2.73;1.20;;;10.90;99.90;;;;;;5059590;28;20258;-81
2023/12/25 07:13:14;;;;;;;4.63;1.30;;;10.90;1.00;;;;;;5059151;28;20282;-82
2023/12/25 07:15:41;;;;;;;3.33;1.73;;;10.90;1.00;;;;;;5058158;28;20201;-82
2023/12/25 07:18:09;;;;;;;5.63;1.60;;;10.90;1.00;;;;;;5058595;28;20234;-83
2023/12/25 07:20:36;;;;;;;5.53;1.70;;;11.00;99.90;;;;;;5058376;28;20242;-82
2023/12/25 07:23:02;;;;;;;2.67;1.20;;;11.00;90.00;;;;;;5058419;28;20305;-81
2023/12/25 07:25:29;;;;;;;2.43;1.60;;;11.00;99.90;;;;;;5059761;28;20206;-80
2023/12/25 07:27:57;;;;;;;4.60;1.97;;;11.00;1.00;;;;;;5060270;28;20213;-81
2023/12/25 07:30:24;;;;;;;5.30;1.70;;;10.90;1.00;;;;;;5059678;28;20215;-80
2023/12/25 07:32:50;;;;;;;2.07;1.00;;;10.90;1.00;;;;;;5059916;28;20227;-80
2023/12/25 07:35:19;;;;;;;5.60;1.63;;;10.90;99.90;;;;;;5057706;28;20226;-77
2023/12/25 07:37:47;;;;;;;2.97;1.10;;;10.90;99.90;;;;;;5055760;28;20242;-79
2023/12/25 07:40:14;;;;;;;4.37;1.33;;;10.90;99.90;;;;;;5066201;28;20202;-81
2023/12/25 07:42:41;;;;;;;2.43;1.30;;;10.90;99.90;;;;;;5076804;28;20225;-81
2023/12/25 07:45:08;;;;;;;2.53;1.13;;;10.80;1.00;;;;;;5077740;28;20202;-82
2023/12/25 07:47:35;;;;;;;3.63;1.40;;;10.70;1.00;;;;;;5080533;28;20213;-80
2023/12/25 07:50:04;;;;;;;2.30;1.20;;;10.90;30.90;;;;;;5081988;28;20217;-80
2023/12/25 07:52:32;;;;;;;2.33;0.90;;;11.00;1.00;;;;;;5078932;28;20222;-79
2023/12/25 07:54:59;;;;;;;3.13;0.97;;;10.90;99.90;;;;;;5060751;28;20221;-80
2023/12/25 07:57:26;;;;;;;2.80;0.90;;;10.90;1.00;;;;;;5060665;28;20264;-81
2023/12/25 07:59:53;;;;;;;4.00;1.43;;;11.00;1.00;;;;;;5063614;28;20628;-79
2023/12/25 08:02:19;;;;;;;3.33;1.13;;;11.00;1.00;;;;;;5063412;28;20756;-80
2023/12/25 08:04:46;;;;;;;3.20;1.13;;;11.10;1.00;;;;;;5063690;28;20209;-82
2023/12/25 08:07:13;;;;;;;2.80;0.90;;;11.00;1.00;;;;;;5060231;28;20245;-81
2023/12/25 08:09:41;;;;;;;2.10;0.90;;;10.90;99.90;;;;;;5078499;28;20232;-81
2023/12/25 08:12:08;;;;;;;1.93;1.00;;;10.90;1.00;;;;;;5083709;28;20279;-82
2023/12/25 08:14:35;;;;;;;2.33;1.00;;;10.80;99.90;;;;;;5083500;28;20270;-82
2023/12/25 08:17:02;;;;;;;3.60;0.90;;;10.90;1.00;;;;;;5064191;28;20291;-81
2023/12/25 08:19:29;;;;;;;2.10;0.97;;;10.80;1.00;;;;;;5062288;28;20234;-81
2023/12/25 08:21:55;;;;;;;1.00;0.90;;;10.70;99.90;;;;;;5061142;28;20246;-77
2023/12/25 08:24:23;;;;;;;5.60;1.33;;;10.70;1.00;;;;;;5061955;28;20234;-82
2023/12/25 08:26:51;;;;;;;3.97;1.20;;;10.90;1.00;;;;;;5061474;28;20203;-81
2023/12/25 08:29:19;;;;;;;6.33;1.50;;;10.70;58.50;;;;;;5060910;28;20225;-79
2023/12/25 08:31:46;;;;;;;3.53;1.03;;;10.70;99.90;;;;;;5060124;28;20235;-80
2023/12/25 08:34:12;;;;;;;4.07;1.33;;;10.60;1.00;;;;;;5064736;28;20260;-81
2023/12/25 08:36:39;;;;;;;5.13;1.20;;;10.60;40.80;;;;;;5080682;28;20574;-81
2023/12/25 08:39:06;;;;;;;3.03;1.20;;;10.70;99.90;;;;;;5080957;28;20213;-80
2023/12/25 08:41:33;;;;;;;4.27;1.87;;;10.70;99.90;;;;;;5080873;28;20700;-79
2023/12/25 08:44:01;;;;;;;5.63;1.37;;;10.80;99.90;;;;;;5079983;28;20660;-79
2023/12/25 08:46:28;;;;;;;6.33;1.60;;;10.80;99.90;;;;;;5081673;28;20848;-79
2023/12/25 08:48:55;;;;;;;4.67;1.23;;;10.90;1.00;;;;;;5080234;28;20202;-80
2023/12/25 08:51:22;;;;;;;3.27;1.30;;;11.00;1.00;;;;;;5079093;28;20237;-81
2023/12/25 08:53:49;;;;;;;5.27;1.50;;;10.90;1.00;;;;;;5081559;28;20251;-80
2023/12/25 08:56:24;;;;;;;5.23;1.40;;;11.00;1.00;;;;;;5081332;28;20202;-80
2023/12/25 08:58:51;;;;;;;5.97;1.67;;;11.00;1.00;;;;;;5080623;28;20216;-82
2023/12/25 09:01:19;;;;;;;3.53;1.40;;;11.10;1.00;;;;;;5082631;28;20244;-83
2023/12/25 09:03:46;;;;;;;4.03;1.47;;;11.10;1.00;;;;;;5081884;28;20581;-82
2023/12/25 09:06:13;;;;;;;4.33;1.27;;;11.00;1.00;;;;;;5072538;28;20219;-83
2023/12/25 09:08:40;;;;;;;2.80;1.10;;;11.10;1.00;;;;;;5061243;28;20199;-80
2023/12/25 09:11:08;;;;;;;8.67;1.60;;;11.10;99.90;;;;;;5061908;28;20219;-83
2023/12/25 09:13:35;;;;;;;5.40;1.40;;;11.10;99.90;;;;;;5060923;28;20294;-81
2023/12/25 09:16:02;;;;;;;3.60;1.47;;;11.20;99.90;;;;;;5060919;28;20226;-82
2023/12/25 09:18:30;;;;;;;5.93;1.73;;;11.20;1.00;;;;;;5062101;28;20587;-82
2023/12/25 09:20:58;;;;;;;6.40;1.40;;;11.30;1.00;;;;;;5062054;28;20222;-80
2023/12/25 09:23:25;;;;;;;3.93;2.00;;;11.30;99.90;;;;;;5061124;28;20301;-82
2023/12/25 09:25:52;;;;;;;3.43;1.57;;;11.30;99.90;;;;;;5072417;28;20195;-81
2023/12/25 09:28:18;;;;;;;5.07;1.60;;;11.30;99.90;;;;;;5081072;28;20232;-83
2023/12/25 09:30:45;;;;;;;4.07;1.53;;;11.30;99.90;;;;;;5081411;28;20202;-82
2023/12/25 09:33:12;;;;;;;3.83;1.67;;;11.40;99.90;;;;;;5080748;28;20716;-81
2023/12/25 09:35:41;;;;;;;5.80;2.17;;;11.30;99.90;;;;;;5080870;28;20297;-81
2023/12/25 09:38:08;;;;;;;5.43;1.93;;;11.30;99.90;;;;;;5080339;28;20214;-81
2023/12/25 09:40:34;;;;;;;5.20;2.23;;;11.30;99.90;;;;;;5079482;28;20289;-79
2023/12/25 09:43:02;;;;;;;5.70;1.77;;;11.30;1.00;;;;;;5080733;28;20249;-81
2023/12/25 09:45:34;;;;;;;5.00;1.90;;;11.40;1.00;;;;;;5080166;28;20244;-79
2023/12/25 09:48:01;;;;;;;5.00;1.67;;;11.50;1.00;;;;;;5080181;28;20271;-79
2023/12/25 09:50:28;;;;;;;5.13;1.77;;;11.40;1.00;;;;;;5077596;28;20404;-80
2023/12/25 09:52:56;;;;;;;6.67;2.00;;;11.50;1.00;;;;;;5078901;28;20222;-79
2023/12/25 09:55:23;;;;;;;6.70;1.57;;;11.40;1.00;;;;;;5078920;28;20208;-78
2023/12/25 09:57:52;;;;;;;3.70;1.40;;;11.50;99.90;;;;;;5077988;28;20343;-83
2023/12/25 10:00:21;;;;;;;6.73;1.67;;;11.60;1.00;;;;;;5078657;28;20210;-82
2023/12/25 10:02:50;;;;;;;4.93;1.53;;;11.60;99.90;;;;;;5078669;28;20210;-82
2023/12/25 10:05:18;;;;;;;3.93;1.57;;;11.60;99.90;;;;;;5079051;28;20209;-81
2023/12/25 10:07:45;;;;;;;7.50;2.40;;;11.60;99.90;;;;;;5080211;28;20675;-82
2023/12/25 10:10:14;;;;;;;6.17;1.40;;;11.60;1.00;;;;;;5079792;28;20232;-81
2023/12/25 10:12:44;;;;;;;3.27;1.40;;;11.70;99.90;;;;;;5080066;28;20219;-81
2023/12/25 10:15:12;;;;;;;2.70;1.03;;;11.70;99.90;;;;;;5080538;28;20202;-80
2023/12/25 10:17:39;;;;;;;5.50;1.70;;;11.80;75.70;;;;;;5080452;28;20293;-82
2023/12/25 10:20:08;;;;;;;4.57;1.27;;;11.80;99.90;;;;;;5080110;28;20207;-81
2023/12/25 10:22:38;;;;;;;2.43;1.40;;;11.70;64.30;;;;;;5079287;28;20640;-79
2023/12/25 10:25:07;;;;;;;7.63;1.57;;;11.80;99.90;;;;;;5079692;28;20207;-80
2023/12/25 10:27:36;;;;;;;3.97;1.43;;;11.80;1.00;;;;;;5078921;28;20198;-81
2023/12/25 10:30:04;;;;;;;3.20;1.30;;;11.80;1.00;;;;;;5078295;28;20198;-79
2023/12/25 10:32:32;;;;;;;4.23;1.30;;;11.80;1.00;;;;;;5077940;28;20265;-80
2023/12/25 10:35:12;;;;;;;3.80;1.30;;;11.90;1.00;;;;;;5078825;28;20262;-80
2023/12/25 10:37:40;;;;;;;4.00;2.17;;;11.80;1.00;;;;;;5079250;28;20226;-79
2023/12/25 10:40:20;;;;;;;3.27;1.27;;;12.00;3.10;;;;;;5078991;28;20237;-80
2023/12/25 10:42:50;;;;;;;5.47;1.43;;;11.80;99.90;;;;;;5078268;28;20232;-81
2023/12/25 10:45:22;;;;;;;5.63;1.70;;;11.90;99.90;;;;;;5078238;28;20229;-80
2023/12/25 10:47:51;;;;;;;6.73;1.67;;;11.70;99.90;;;;;;5077552;28;20193;-78
2023/12/25 10:50:20;;;;;;;4.90;1.73;;;11.60;1.00;;;;;;5077062;28;20585;-79
2023/12/25 10:52:49;;;;;;;4.33;1.60;;;11.70;1.00;;;;;;5079112;28;20217;-79
2023/12/25 10:55:24;;;;;;;7.40;1.67;;;11.70;1.00;;;;;;5079214;28;20199;-79
2023/12/25 10:57:53;;;;;;;4.37;1.60;;;11.70;1.00;;;;;;5079457;28;20190;-82
2023/12/25 11:00:22;;;;;;;5.73;1.90;;;11.80;1.00;;;;;;5079306;28;20252;-80
2023/12/25 11:02:55;;;;;;;8.47;1.93;;;11.70;1.00;;;;;;5078870;28;20239;-78
2023/12/25 11:05:22;;;;;;;6.87;1.83;;;11.90;99.90;;;;;;5077855;28;20281;-78
2023/12/25 11:07:50;;;;;;;5.33;1.23;;;11.90;1.00;;;;;;5077118;28;20210;-81
2023/12/25 11:10:17;;;;;;;4.37;1.50;;;11.90;1.00;;;;;;5076383;28;20206;-81
2023/12/25 11:12:44;;;;;;;3.20;1.10;;;11.90;1.00;;;;;;5077775;28;20226;-79
2023/12/25 11:15:13;;;;;;;5.03;1.30;;;12.00;1.00;;;;;;5078400;28;20265;-79
2023/12/25 11:17:40;;;;;;;7.47;1.47;;;12.00;1.00;;;;;;5078358;28;20206;-79
2023/12/25 11:20:11;;;;;;;4.63;1.43;;;12.00;1.00;;;;;;5078497;28;20202;-80
2023/12/25 11:22:40;;;;;;;6.73;1.57;;;11.90;1.00;;;;;;5084687;28;20241;-81
2023/12/25 11:25:13;;;;;;;2.17;1.37;;;12.00;1.00;;;;;;5085272;28;20202;-81
2023/12/25 11:27:42;;;;;;;7.97;1.47;;;12.00;1.00;;;;;;5083996;28;20281;-80
2023/12/25 11:30:12;;;;;;;3.90;1.30;;;11.90;1.00;;;;;;5085202;28;20227;-78
2023/12/25 11:32:45;;;;;;;2.33;1.00;;;11.90;1.00;;;;;;5084023;28;20240;-80
2023/12/25 11:35:12;;;;;;;4.90;1.40;;;11.90;1.00;;;;;;5085244;28;20690;-80
2023/12/25 11:37:39;;;;;;;3.90;1.30;;;11.90;1.00;;;;;;5085254;28;20657;-79
2023/12/25 11:40:08;;;;;;;3.03;1.20;;;11.90;1.00;;;;;;5085368;28;20296;-81
2023/12/25 11:42:35;;;;;;;3.73;1.27;;;11.90;1.00;;;;;;5085458;28;20224;-79
2023/12/25 11:45:04;;;;;;;5.07;1.37;;;11.90;99.90;;;;;;5084860;28;20210;-80
2023/12/25 11:47:40;;;;;;;4.27;1.60;;;11.90;99.90;;;;;;5084652;28;20209;-81
2023/12/25 11:50:08;;;;;;;4.57;1.50;;;11.90;99.90;;;;;;5084251;28;20671;-81
2023/12/25 11:52:55;;;;;;;4.23;1.70;;;11.90;99.90;;;;;;5081320;28;20582;-81
2023/12/25 11:55:24;;;;;;;5.07;1.53;;;11.80;99.90;;;;;;5085337;28;20233;-80
2023/12/25 11:57:51;;;;;;;4.57;1.33;;;11.90;99.90;;;;;;5080610;28;20216;-79
2023/12/25 12:00:21;;;;;;;5.10;1.47;;;12.00;99.90;;;;;;5067160;28;20232;-80
2023/12/25 12:02:50;;;;;;;3.43;1.50;;;11.80;99.90;;;;;;5082577;28;20304;-79
2023/12/25 12:05:17;;;;;;;2.03;1.20;;;11.90;99.90;;;;;;5063909;28;20587;-78
2023/12/25 12:07:44;;;;;;;4.13;1.50;;;11.80;99.90;;;;;;5068182;28;20203;-79
2023/12/25 12:10:12;;;;;;;4.17;2.17;;;11.80;99.90;;;;;;5081101;28;20217;-79
2023/12/25 12:12:39;;;;;;;7.47;1.83;;;11.80;99.90;;;;;;5064779;28;20218;-81
2023/12/25 12:15:08;;;;;;;4.37;1.50;;;11.80;1.00;;;;;;5065604;28;20572;-78
2023/12/25 12:17:35;;;;;;;4.83;1.47;;;11.80;1.00;;;;;;5064026;28;20199;-81
2023/12/25 12:20:05;;;;;;;5.00;2.00;;;11.80;1.00;;;;;;5063696;28;20226;-79
2023/12/25 12:22:32;;;;;;;9.90;3.57;;;11.70;1.00;;;;;;5063804;28;20234;-81
2023/12/25 12:25:15;;;;;;;2.70;1.43;;;11.60;1.00;;;;;;5065019;28;20199;-81
2023/12/25 12:27:42;;;;;;;4.77;1.60;;;11.60;1.00;;;;;;5084346;28;20183;-82
2023/12/25 12:30:10;;;;;;;5.47;1.60;;;11.70;1.00;;;;;;5083717;28;20229;-81
2023/12/25 12:32:37;;;;;;;5.70;1.80;;;11.60;1.00;;;;;;5082639;28;20232;-78
2023/12/25 12:35:07;;;;;;;4.83;1.27;;;11.60;1.00;;;;;;5079774;28;20206;-79
2023/12/25 12:37:35;;;;;;;3.73;1.50;;;11.60;1.00;;;;;;5079356;28;20210;-78
2023/12/25 12:40:03;;;;;;;5.47;2.37;;;11.60;1.00;;;;;;5078886;28;20248;-80
2023/12/25 12:42:32;;;;;;;4.27;1.90;;;11.60;1.00;;;;;;5082577;28;20260;-81
2023/12/25 12:45:00;;;;;;;6.30;1.97;;;11.60;1.00;;;;;;5082937;28;20206;-81
2023/12/25 12:47:27;;;;;;;2.47;1.63;;;11.50;1.00;;;;;;5082173;28;20206;-80
2023/12/25 12:49:54;;;;;;;4.13;1.50;;;11.50;1.00;;;;;;5083446;28;20278;-80
2023/12/25 12:52:23;;;;;;;6.27;1.67;;;11.50;1.00;;;;;;5082825;28;20230;-80
2023/12/25 12:54:49;;;;;;;4.33;1.80;;;11.50;1.00;;;;;;5084211;28;20202;-82